createdAt,value
2023-05-01T00:00:05.783Z,1012.05
2023-05-01T00:01:05.714Z,1012.09
2023-05-01T00:02:05.696Z,1012.07
2023-05-01T00:03:05.756Z,1012.02
2023-05-01T00:04:05.771Z,1012.01
2023-05-01T00:05:05.821Z,1012.03
2023-05-01T00:06:05.743Z,1012.04
2023-05-01T00:07:05.644Z,1011.98
2023-05-01T00:08:05.630Z,1011.99
2023-05-01T00:09:05.636Z,1011.95
2023-05-01T00:10:05.621Z,1012.00
2023-05-01T00:11:05.628Z,1011.96
2023-05-01T00:12:05.593Z,1011.89
2023-05-01T00:13:05.577Z,1011.89
2023-05-01T00:14:05.579Z,1011.93
2023-05-01T00:15:05.590Z,1011.92
2023-05-01T00:16:05.574Z,1011.89
2023-05-01T00:17:05.535Z,1011.89
2023-05-01T00:18:05.565Z,1011.83
2023-05-01T00:19:05.533Z,1011.81
2023-05-01T00:20:05.513Z,1011.80
2023-05-01T00:21:05.517Z,1011.77
2023-05-01T00:22:05.480Z,1011.78
2023-05-01T00:23:05.461Z,1011.73
2023-05-01T00:24:05.469Z,1011.74
2023-05-01T00:25:05.438Z,1011.75
2023-05-01T00:26:05.484Z,1011.71
2023-05-01T00:27:05.422Z,1011.64
2023-05-01T00:28:05.408Z,1011.68
2023-05-01T00:29:05.399Z,1011.64
2023-05-01T00:30:05.391Z,1011.65
2023-05-01T00:31:05.426Z,1011.60
2023-05-01T00:32:05.462Z,1011.60
2023-05-01T00:33:05.402Z,1011.58
2023-05-01T00:34:05.338Z,1011.60
2023-05-01T00:35:05.334Z,1011.58
2023-05-01T00:36:05.316Z,1011.55
2023-05-01T00:37:05.319Z,1011.55
2023-05-01T00:38:05.297Z,1011.54
2023-05-01T00:39:05.295Z,1011.52
2023-05-01T00:40:05.295Z,1011.48
2023-05-01T00:41:05.266Z,1011.55
2023-05-01T00:42:05.270Z,1011.50
2023-05-01T00:43:05.247Z,1011.55
2023-05-01T00:44:05.238Z,1011.47
2023-05-01T00:45:05.235Z,1011.47
2023-05-01T00:46:05.250Z,1011.45
2023-05-01T00:47:05.232Z,1011.38
2023-05-01T00:48:05.248Z,1011.45
2023-05-01T00:49:05.182Z,1011.41
2023-05-01T00:50:05.178Z,1011.43
2023-05-01T00:51:05.181Z,1011.41
2023-05-01T00:52:05.152Z,1011.40
2023-05-01T00:53:05.144Z,1011.41
2023-05-01T00:54:05.126Z,1011.37
2023-05-01T00:55:05.113Z,1011.38
2023-05-01T00:56:05.098Z,1011.35
2023-05-01T00:57:05.089Z,1011.26
2023-05-01T00:58:05.081Z,1011.35
2023-05-01T00:59:05.078Z,1011.29
2023-05-01T01:00:05.061Z,1011.24
2023-05-01T01:01:05.086Z,1011.25
2023-05-01T01:02:05.027Z,1011.29
2023-05-01T01:03:05.105Z,1011.26
2023-05-01T01:04:05.046Z,1011.30
2023-05-01T01:05:05.033Z,1011.25
2023-05-01T01:06:05.007Z,1011.26
2023-05-01T01:07:04.979Z,1011.23
2023-05-01T01:08:04.959Z,1011.28
2023-05-01T01:09:04.962Z,1011.19
2023-05-01T01:10:04.954Z,1011.21
2023-05-01T01:11:04.929Z,1011.16
2023-05-01T01:12:04.913Z,1011.14
2023-05-01T01:13:04.906Z,1011.15
2023-05-01T01:14:04.905Z,1011.11
2023-05-01T01:15:04.898Z,1011.13
2023-05-01T01:16:04.871Z,1011.09
2023-05-01T01:17:05.066Z,1011.11
2023-05-01T01:18:04.937Z,1011.09
2023-05-01T01:19:04.869Z,1011.07
2023-05-01T01:20:04.836Z,1011.06
2023-05-01T01:21:04.823Z,1011.06
2023-05-01T01:22:04.806Z,1011.03
2023-05-01T01:23:04.805Z,1011.02
2023-05-01T01:24:04.804Z,1011.01
2023-05-01T01:25:04.771Z,1010.96
2023-05-01T01:26:04.774Z,1011.02
2023-05-01T01:27:04.767Z,1010.94
2023-05-01T01:28:04.741Z,1011.02
2023-05-01T01:29:04.734Z,1010.97
2023-05-01T01:30:04.742Z,1010.99
2023-05-01T01:31:04.748Z,1010.99
2023-05-01T01:32:04.689Z,1010.97
2023-05-01T01:33:04.774Z,1010.94
2023-05-01T01:34:04.680Z,1010.91
2023-05-01T01:35:04.707Z,1011.01
2023-05-01T01:36:04.654Z,1010.92
2023-05-01T01:37:04.632Z,1010.92
2023-05-01T01:38:04.628Z,1010.85
2023-05-01T01:39:04.611Z,1010.81
2023-05-01T01:40:04.645Z,1010.87
2023-05-01T01:41:04.601Z,1010.84
2023-05-01T01:42:04.579Z,1010.83
2023-05-01T01:43:04.570Z,1010.80
2023-05-01T01:44:04.562Z,1010.87
2023-05-01T01:45:04.579Z,1010.82
2023-05-01T01:46:04.568Z,1010.80
2023-05-01T01:47:04.524Z,1010.79
2023-05-01T01:48:04.552Z,1010.76
2023-05-01T01:49:04.527Z,1010.74
2023-05-01T01:50:04.494Z,1010.72
2023-05-01T01:51:04.507Z,1010.67
2023-05-01T01:52:04.495Z,1010.71
2023-05-01T01:53:04.474Z,1010.70
2023-05-01T01:54:04.448Z,1010.69
2023-05-01T01:55:04.435Z,1010.65
2023-05-01T01:56:04.451Z,1010.63
2023-05-01T01:57:04.425Z,1010.63
2023-05-01T01:58:04.438Z,1010.64
2023-05-01T01:59:04.397Z,1010.60
2023-05-01T02:00:04.383Z,1010.54
2023-05-01T02:01:04.374Z,1010.56
2023-05-01T02:02:04.477Z,1010.51
2023-05-01T02:03:04.448Z,1010.54
2023-05-01T02:04:04.419Z,1010.56
2023-05-01T02:05:04.329Z,1010.56
2023-05-01T02:06:04.469Z,1010.56
2023-05-01T02:07:04.426Z,1010.52
2023-05-01T02:08:04.309Z,1010.53
2023-05-01T02:09:04.304Z,1010.56
2023-05-01T02:10:04.273Z,1010.50
2023-05-01T02:11:04.260Z,1010.47
2023-05-01T02:12:04.251Z,1010.46
2023-05-01T02:13:04.269Z,1010.48
2023-05-01T02:14:04.229Z,1010.51
2023-05-01T02:15:04.227Z,1010.48
2023-05-01T02:16:04.250Z,1010.48
2023-05-01T02:17:04.222Z,1010.48
2023-05-01T02:18:04.222Z,1010.48
2023-05-01T02:19:04.175Z,1010.51
2023-05-01T02:20:04.187Z,1010.39
2023-05-01T02:21:04.158Z,1010.40
2023-05-01T02:22:04.143Z,1010.35
2023-05-01T02:23:04.151Z,1010.36
2023-05-01T02:24:04.124Z,1010.31
2023-05-01T02:25:04.112Z,1010.28
2023-05-01T02:26:04.156Z,1010.27
2023-05-01T02:27:04.100Z,1010.28
2023-05-01T02:28:04.092Z,1010.21
2023-05-01T02:29:04.073Z,1010.22
2023-05-01T02:30:04.054Z,1010.22
2023-05-01T02:31:04.050Z,1010.24
2023-05-01T02:32:04.114Z,1010.24
2023-05-01T02:33:04.069Z,1010.19
2023-05-01T02:34:04.010Z,1010.18
2023-05-01T02:35:04.000Z,1010.16
2023-05-01T02:36:03.997Z,1010.21
2023-05-01T02:37:04.005Z,1010.18
2023-05-01T02:38:03.967Z,1010.11
2023-05-01T02:39:03.993Z,1010.11
2023-05-01T02:40:03.944Z,1010.07
2023-05-01T02:41:03.945Z,1010.10
2023-05-01T02:42:03.932Z,1010.06
2023-05-01T02:43:03.906Z,1010.11
2023-05-01T02:44:03.895Z,1010.11
2023-05-01T02:45:03.900Z,1010.09
2023-05-01T02:46:03.922Z,1010.07
2023-05-01T02:47:03.930Z,1010.01
2023-05-01T02:48:03.907Z,1010.02
2023-05-01T02:49:03.856Z,1010.04
2023-05-01T02:50:03.839Z,1010.04
2023-05-01T02:51:03.858Z,1010.01
2023-05-01T02:52:03.811Z,1009.97
2023-05-01T02:53:03.841Z,1009.91
2023-05-01T02:54:03.789Z,1009.96
2023-05-01T02:55:03.806Z,1009.91
2023-05-01T02:56:03.786Z,1009.96
2023-05-01T02:57:03.754Z,1009.92
2023-05-01T02:58:03.747Z,1009.91
2023-05-01T02:59:03.739Z,1009.94
2023-05-01T03:00:03.729Z,1009.93
2023-05-01T03:01:03.784Z,1009.93
2023-05-01T03:02:03.703Z,1009.92
2023-05-01T03:03:03.772Z,1009.85
2023-05-01T03:04:03.705Z,1009.81
2023-05-01T03:05:03.668Z,1009.83
2023-05-01T03:06:03.729Z,1009.79
2023-05-01T03:07:03.649Z,1009.75
2023-05-01T03:08:03.632Z,1009.74
2023-05-01T03:09:03.629Z,1009.81
2023-05-01T03:10:03.617Z,1009.71
2023-05-01T03:11:03.617Z,1009.73
2023-05-01T03:12:03.635Z,1009.73
2023-05-01T03:13:03.580Z,1009.78
2023-05-01T03:14:03.586Z,1009.68
2023-05-01T03:15:03.561Z,1009.62
2023-05-01T03:16:03.645Z,1009.65
2023-05-01T03:17:03.527Z,1009.63
2023-05-01T03:18:03.580Z,1009.65
2023-05-01T03:19:03.537Z,1009.54
2023-05-01T03:20:03.499Z,1009.64
2023-05-01T03:21:03.510Z,1009.58
2023-05-01T03:22:03.490Z,1009.57
2023-05-01T03:23:03.481Z,1009.58
2023-05-01T03:24:03.455Z,1009.56
2023-05-01T03:25:03.452Z,1009.60
2023-05-01T03:26:03.445Z,1009.54
2023-05-01T03:27:03.468Z,1009.59
2023-05-01T03:28:03.413Z,1009.54
2023-05-01T03:29:03.399Z,1009.54
2023-05-01T03:30:03.387Z,1009.51
2023-05-01T03:31:03.389Z,1009.48
2023-05-01T03:32:03.411Z,1009.50
2023-05-01T03:33:03.466Z,1009.49
2023-05-01T03:34:03.342Z,1009.48
2023-05-01T03:35:03.378Z,1009.42
2023-05-01T03:36:03.328Z,1009.43
2023-05-01T03:37:03.314Z,1009.47
2023-05-01T03:38:03.307Z,1009.43
2023-05-01T03:39:03.284Z,1009.45
2023-05-01T03:40:03.279Z,1009.42
2023-05-01T03:41:03.272Z,1009.35
2023-05-01T03:42:03.274Z,1009.42
2023-05-01T03:43:03.286Z,1009.37
2023-05-01T03:44:03.237Z,1009.34
2023-05-01T03:45:03.227Z,1009.40
2023-05-01T03:46:03.258Z,1009.31
2023-05-01T03:47:03.193Z,1009.37
2023-05-01T03:48:03.225Z,1009.36
2023-05-01T03:49:03.198Z,1009.32
2023-05-01T03:50:03.202Z,1009.33
2023-05-01T03:51:03.149Z,1009.33
2023-05-01T03:52:03.140Z,1009.38
2023-05-01T03:53:03.127Z,1009.36
2023-05-01T03:54:03.119Z,1009.38
2023-05-01T03:55:03.148Z,1009.33
2023-05-01T03:56:03.115Z,1009.31
2023-05-01T03:57:03.094Z,1009.35
2023-05-01T03:58:03.073Z,1009.30
2023-05-01T03:59:03.106Z,1009.27
2023-05-01T04:00:03.073Z,1009.33
2023-05-01T04:01:03.097Z,1009.29
2023-05-01T04:02:03.054Z,1009.30
2023-05-01T04:03:03.187Z,1009.26
2023-05-01T04:04:03.133Z,1009.27
2023-05-01T04:05:03.041Z,1009.31
2023-05-01T04:06:02.995Z,1009.28
2023-05-01T04:07:03.009Z,1009.24
2023-05-01T04:08:02.971Z,1009.24
2023-05-01T04:09:02.954Z,1009.29
2023-05-01T04:10:02.954Z,1009.21
2023-05-01T04:11:02.936Z,1009.19
2023-05-01T04:12:02.966Z,1009.19
2023-05-01T04:13:02.920Z,1009.20
2023-05-01T04:14:02.906Z,1009.20
2023-05-01T04:15:02.909Z,1009.22
2023-05-01T04:16:02.909Z,1009.22
2023-05-01T04:17:02.890Z,1009.19
2023-05-01T04:18:02.899Z,1009.20
2023-05-01T04:19:02.848Z,1009.17
2023-05-01T04:20:02.833Z,1009.13
2023-05-01T04:21:02.819Z,1009.17
2023-05-01T04:22:02.836Z,1009.13
2023-05-01T04:23:02.801Z,1009.17
2023-05-01T04:24:02.791Z,1009.17
2023-05-01T04:25:02.808Z,1009.17
2023-05-01T04:26:02.767Z,1009.13
2023-05-01T04:27:02.751Z,1009.10
2023-05-01T04:28:02.776Z,1009.12
2023-05-01T04:29:02.751Z,1009.14
2023-05-01T04:30:02.719Z,1009.18
2023-05-01T04:31:02.787Z,1009.18
2023-05-01T04:32:02.766Z,1009.13
2023-05-01T04:33:02.745Z,1009.17
2023-05-01T04:34:02.676Z,1009.13
2023-05-01T04:35:04.127Z,1009.13
2023-05-01T04:36:02.652Z,1009.13
2023-05-01T04:37:02.648Z,1009.13
2023-05-01T04:38:02.667Z,1009.19
2023-05-01T04:39:02.622Z,1009.14
2023-05-01T04:40:02.615Z,1009.14
2023-05-01T04:41:02.617Z,1009.14
2023-05-01T04:42:02.585Z,1009.21
2023-05-01T04:43:02.608Z,1009.13
2023-05-01T04:44:02.573Z,1009.20
2023-05-01T04:45:02.558Z,1009.10
2023-05-01T04:46:02.547Z,1009.15
2023-05-01T04:47:02.723Z,1009.15
2023-05-01T04:48:02.571Z,1009.11
2023-05-01T04:49:02.533Z,1009.16
2023-05-01T04:50:02.501Z,1009.19
2023-05-01T04:51:02.488Z,1009.16
2023-05-01T04:52:02.472Z,1009.19
2023-05-01T04:53:02.481Z,1009.11
2023-05-01T04:54:02.473Z,1009.20
2023-05-01T04:55:02.450Z,1009.17
2023-05-01T04:56:02.435Z,1009.12
2023-05-01T04:57:02.414Z,1009.13
2023-05-01T04:58:02.434Z,1009.08
2023-05-01T04:59:02.419Z,1009.08
2023-05-01T05:00:02.393Z,1009.16
2023-05-01T05:01:02.412Z,1009.12
2023-05-01T05:02:02.622Z,1009.17
2023-05-01T05:03:02.535Z,1009.14
2023-05-01T05:04:02.505Z,1009.13
2023-05-01T05:05:02.329Z,1009.16
2023-05-01T05:06:02.350Z,1009.14
2023-05-01T05:07:02.303Z,1009.19
2023-05-01T05:08:02.298Z,1009.22
2023-05-01T05:09:02.305Z,1009.12
2023-05-01T05:10:02.282Z,1009.10
2023-05-01T05:11:02.313Z,1009.12
2023-05-01T05:12:02.252Z,1009.16
2023-05-01T05:13:02.262Z,1009.08
2023-05-01T05:14:02.236Z,1009.19
2023-05-01T05:15:02.212Z,1009.17
2023-05-01T05:16:02.240Z,1009.17
2023-05-01T05:17:02.205Z,1009.18
2023-05-01T05:18:02.384Z,1009.14
2023-05-01T05:19:02.214Z,1009.20
2023-05-01T05:20:02.162Z,1009.17
2023-05-01T05:21:02.162Z,1009.13
2023-05-01T05:22:02.148Z,1009.14
2023-05-01T05:23:02.155Z,1009.15
2023-05-01T05:24:02.147Z,1009.13
2023-05-01T05:25:02.137Z,1009.18
2023-05-01T05:26:02.105Z,1009.16
2023-05-01T05:27:02.081Z,1009.21
2023-05-01T05:28:02.155Z,1009.14
2023-05-01T05:29:02.077Z,1009.16
2023-05-01T05:30:02.063Z,1009.21
2023-05-01T05:31:02.050Z,1009.22
2023-05-01T05:32:02.120Z,1009.23
2023-05-01T05:33:02.069Z,1009.15
2023-05-01T05:34:02.013Z,1009.18
2023-05-01T05:35:02.039Z,1009.12
2023-05-01T05:36:01.985Z,1009.17
2023-05-01T05:37:01.976Z,1009.19
2023-05-01T05:38:01.962Z,1009.15
2023-05-01T05:39:02.035Z,1009.16
2023-05-01T05:40:01.979Z,1009.17
2023-05-01T05:41:01.936Z,1009.17
2023-05-01T05:42:01.918Z,1009.09
2023-05-01T05:43:01.948Z,1009.14
2023-05-01T05:44:01.898Z,1009.13
2023-05-01T05:45:01.936Z,1009.07
2023-05-01T05:46:02.045Z,1009.07
2023-05-01T05:47:01.869Z,1009.08
2023-05-01T05:48:01.935Z,1009.10
2023-05-01T05:49:01.836Z,1009.09
2023-05-01T05:50:01.841Z,1009.08
2023-05-01T05:51:01.839Z,1009.11
2023-05-01T05:52:01.810Z,1009.06
2023-05-01T05:53:01.797Z,1009.00
2023-05-01T05:54:01.786Z,1009.11
2023-05-01T05:55:01.774Z,1009.08
2023-05-01T05:56:01.780Z,1009.02
2023-05-01T05:57:01.766Z,1009.03
2023-05-01T05:58:01.783Z,1009.06
2023-05-01T05:59:01.731Z,1009.07
2023-05-01T06:00:01.717Z,1009.01
2023-05-01T06:01:01.727Z,1009.04
2023-05-01T06:02:01.715Z,1008.99
2023-05-01T06:03:01.809Z,1009.01
2023-05-01T06:04:01.694Z,1009.00
2023-05-01T06:05:01.742Z,1008.95
2023-05-01T06:06:01.867Z,1009.02
2023-05-01T06:07:01.896Z,1009.01
2023-05-01T06:08:01.652Z,1008.94
2023-05-01T06:09:01.633Z,1009.03
2023-05-01T06:10:01.637Z,1009.02
2023-05-01T06:11:01.599Z,1008.96
2023-05-01T06:12:01.588Z,1009.03
2023-05-01T06:13:07.744Z,1009.07
2023-05-01T06:14:02.578Z,1008.99
2023-05-01T06:15:01.559Z,1009.01
2023-05-01T06:16:01.620Z,1008.96
2023-05-01T06:17:01.532Z,1009.06
2023-05-01T06:18:01.565Z,1008.98
2023-05-01T06:19:01.522Z,1009.09
2023-05-01T06:20:01.510Z,1009.03
2023-05-01T06:21:01.488Z,1009.04
2023-05-01T06:22:01.472Z,1009.03
2023-05-01T06:23:01.606Z,1009.08
2023-05-01T06:24:01.462Z,1009.08
2023-05-01T06:25:01.475Z,1009.11
2023-05-01T06:26:01.430Z,1009.04
2023-05-01T06:27:01.600Z,1009.04
2023-05-01T06:28:01.407Z,1009.02
2023-05-01T06:29:01.398Z,1008.99
2023-05-01T06:30:01.384Z,1008.99
2023-05-01T06:31:01.426Z,1009.06
2023-05-01T06:32:01.400Z,1009.06
2023-05-01T06:33:01.388Z,1009.04
2023-05-01T06:34:01.338Z,1008.98
2023-05-01T06:35:01.326Z,1009.01
2023-05-01T06:36:01.339Z,1009.05
2023-05-01T06:37:01.318Z,1008.97
2023-05-01T06:38:01.289Z,1008.93
2023-05-01T06:39:01.302Z,1009.00
2023-05-01T06:40:01.267Z,1008.93
2023-05-01T06:41:01.275Z,1008.97
2023-05-01T06:42:01.461Z,1008.93
2023-05-01T06:43:01.242Z,1008.90
2023-05-01T06:44:01.221Z,1009.03
2023-05-01T06:45:01.226Z,1008.96
2023-05-01T06:46:01.227Z,1008.93
2023-05-01T06:47:01.236Z,1008.98
2023-05-01T06:48:01.205Z,1008.91
2023-05-01T06:49:01.175Z,1008.93
2023-05-01T06:50:02.891Z,1008.88
2023-05-01T06:51:01.146Z,1008.97
2023-05-01T06:52:01.135Z,1008.96
2023-05-01T06:53:01.139Z,1008.91
2023-05-01T06:54:01.114Z,1008.93
2023-05-01T06:55:01.145Z,1008.96
2023-05-01T06:56:01.089Z,1008.90
2023-05-01T06:57:01.107Z,1008.93
2023-05-01T06:58:04.858Z,1008.90
2023-05-01T06:59:02.062Z,1008.94
2023-05-01T07:00:01.044Z,1008.92
2023-05-01T07:01:01.119Z,1008.99
2023-05-01T07:02:01.070Z,1008.94
2023-05-01T07:03:01.084Z,1008.96
2023-05-01T07:04:01.000Z,1008.92
2023-05-01T07:05:01.000Z,1008.93
2023-05-01T07:06:01.056Z,1008.89
2023-05-01T07:07:01.015Z,1009.01
2023-05-01T07:08:01.876Z,1008.98
2023-05-01T07:09:00.967Z,1009.01
2023-05-01T07:10:00.932Z,1008.98
2023-05-01T07:11:01.026Z,1008.99
2023-05-01T07:12:00.916Z,1008.94
2023-05-01T07:13:00.938Z,1008.96
2023-05-01T07:14:00.908Z,1008.91
2023-05-01T07:15:00.907Z,1008.91
2023-05-01T07:16:00.893Z,1008.92
2023-05-01T07:17:01.371Z,1008.86
2023-05-01T07:18:00.913Z,1008.89
2023-05-01T07:19:00.874Z,1008.86
2023-05-01T07:20:00.858Z,1008.91
2023-05-01T07:21:00.831Z,1008.85
2023-05-01T07:22:00.827Z,1008.91
2023-05-01T07:23:00.794Z,1008.90
2023-05-01T07:24:00.783Z,1008.94
2023-05-01T07:25:00.780Z,1008.91
2023-05-01T07:26:00.756Z,1008.93
2023-05-01T07:27:00.790Z,1008.89
2023-05-01T07:28:00.779Z,1008.95
2023-05-01T07:29:00.778Z,1008.93
2023-05-01T07:30:00.724Z,1008.90
2023-05-01T07:31:00.709Z,1008.90
2023-05-01T07:32:00.751Z,1008.89
2023-05-01T07:33:00.705Z,1008.84
2023-05-01T07:34:00.700Z,1008.87
2023-05-01T07:35:00.671Z,1008.88
2023-05-01T07:36:00.660Z,1008.87
2023-05-01T07:37:00.651Z,1008.90
2023-05-01T07:38:00.654Z,1008.78
2023-05-01T07:39:00.642Z,1008.81
2023-05-01T07:40:00.601Z,1008.80
2023-05-01T07:41:01.189Z,1008.81
2023-05-01T07:42:00.584Z,1008.78
2023-05-01T07:43:00.626Z,1008.88
2023-05-01T07:44:00.563Z,1008.82
2023-05-01T07:45:00.554Z,1008.85
2023-05-01T07:46:00.822Z,1008.75
2023-05-01T07:47:00.529Z,1008.78
2023-05-01T07:48:00.546Z,1008.81
2023-05-01T07:49:00.515Z,1008.79
2023-05-01T07:50:00.491Z,1008.74
2023-05-01T07:51:00.496Z,1008.83
2023-05-01T07:52:00.465Z,1008.79
2023-05-01T07:53:00.465Z,1008.76
2023-05-01T07:54:00.443Z,1008.77
2023-05-01T07:55:00.454Z,1008.75
2023-05-01T07:56:00.432Z,1008.75
2023-05-01T07:57:00.434Z,1008.76
2023-05-01T07:58:00.426Z,1008.79
2023-05-01T07:59:00.416Z,1008.74
2023-05-01T08:00:00.381Z,1008.69
2023-05-01T08:01:00.366Z,1008.74
2023-05-01T08:02:00.454Z,1008.78
2023-05-01T08:03:00.481Z,1008.79
2023-05-01T08:04:00.412Z,1008.80
2023-05-01T08:05:00.477Z,1008.78
2023-05-01T08:06:00.423Z,1008.79
2023-05-01T08:07:00.311Z,1008.81
2023-05-01T08:08:00.293Z,1008.80
2023-05-01T08:09:00.291Z,1008.82
2023-05-01T08:10:00.661Z,1008.82
2023-05-01T08:11:00.263Z,1008.83
2023-05-01T08:12:00.277Z,1008.81
2023-05-01T08:13:00.237Z,1008.78
2023-05-01T08:14:00.222Z,1008.85
2023-05-01T08:15:00.249Z,1008.85
2023-05-01T08:16:00.264Z,1008.83
2023-05-01T08:17:00.192Z,1008.85
2023-05-01T08:18:00.288Z,1008.80
2023-05-01T08:19:00.170Z,1008.78
2023-05-01T08:20:00.195Z,1008.83
2023-05-01T08:21:00.158Z,1008.77
2023-05-01T08:22:00.167Z,1008.78
2023-05-01T08:23:00.139Z,1008.79
2023-05-01T08:24:00.150Z,1008.75
2023-05-01T08:25:00.165Z,1008.75
2023-05-01T08:26:00.116Z,1008.82
2023-05-01T08:27:00.130Z,1008.73
2023-05-01T08:28:00.086Z,1008.70
2023-05-01T08:29:00.089Z,1008.74
2023-05-01T08:30:00.053Z,1008.69
2023-05-01T08:31:00.139Z,1008.76
2023-05-01T08:32:00.120Z,1008.73
2023-05-01T08:33:00.061Z,1008.76
2023-05-01T08:34:00.014Z,1008.69
2023-05-01T08:35:00.004Z,1008.73
2023-05-01T08:35:59.993Z,1008.64
2023-05-01T08:36:59.984Z,1008.63
2023-05-01T08:37:59.966Z,1008.58
2023-05-01T08:38:59.971Z,1008.63
2023-05-01T08:39:59.946Z,1008.57
2023-05-01T08:40:59.947Z,1008.64
2023-05-01T08:41:59.917Z,1008.55
2023-05-01T08:42:59.914Z,1008.59
2023-05-01T08:43:59.909Z,1008.61
2023-05-01T08:44:59.907Z,1008.62
2023-05-01T08:45:59.874Z,1008.67
2023-05-01T08:46:59.927Z,1008.70
2023-05-01T08:47:59.972Z,1008.64
2023-05-01T08:48:59.854Z,1008.69
2023-05-01T08:49:59.866Z,1008.62
2023-05-01T08:50:59.829Z,1008.65
2023-05-01T08:51:59.808Z,1008.65
2023-05-01T08:52:59.794Z,1008.67
2023-05-01T08:53:59.783Z,1008.69
2023-05-01T08:54:59.784Z,1008.59
2023-05-01T08:55:59.758Z,1008.65
2023-05-01T08:56:59.761Z,1008.57
2023-05-01T08:57:59.752Z,1008.55
2023-05-01T08:58:59.764Z,1008.62
2023-05-01T08:59:59.714Z,1008.58
2023-05-01T09:00:59.734Z,1008.59
2023-05-01T09:01:59.730Z,1008.57
2023-05-01T09:02:59.756Z,1008.58
2023-05-01T09:03:59.700Z,1008.57
2023-05-01T09:04:59.657Z,1008.49
2023-05-01T09:05:59.717Z,1008.55
2023-05-01T09:06:59.637Z,1008.60
2023-05-01T09:07:59.619Z,1008.55
2023-05-01T09:08:59.628Z,1008.55
2023-05-01T09:09:59.609Z,1008.63
2023-05-01T09:10:59.612Z,1008.51
2023-05-01T09:11:59.575Z,1008.57
2023-05-01T09:12:59.573Z,1008.65
2023-05-01T09:13:59.554Z,1008.58
2023-05-01T09:14:59.555Z,1008.56
2023-05-01T09:15:59.570Z,1008.62
2023-05-01T09:16:59.521Z,1008.58
2023-05-01T09:18:02.321Z,1008.56
2023-05-01T09:18:59.524Z,1008.56
2023-05-01T09:19:59.490Z,1008.60
2023-05-01T09:20:59.480Z,1008.53
2023-05-01T09:21:59.488Z,1008.59
2023-05-01T09:22:59.456Z,1008.52
2023-05-01T09:23:59.441Z,1008.56
2023-05-01T09:24:59.450Z,1008.46
2023-05-01T09:25:59.421Z,1008.46
2023-05-01T09:26:59.448Z,1008.45
2023-05-01T09:27:59.411Z,1008.50
2023-05-01T09:28:59.394Z,1008.45
2023-05-01T09:29:59.529Z,1008.44
2023-05-01T09:30:59.368Z,1008.53
2023-05-01T09:31:59.383Z,1008.46
2023-05-01T09:32:59.389Z,1008.54
2023-05-01T09:33:59.357Z,1008.46
2023-05-01T09:34:59.341Z,1008.47
2023-05-01T09:35:59.309Z,1008.43
2023-05-01T09:36:59.317Z,1008.49
2023-05-01T09:37:59.287Z,1008.45
2023-05-01T09:38:59.281Z,1008.43
2023-05-01T09:39:59.332Z,1008.42
2023-05-01T09:40:59.256Z,1008.47
2023-05-01T09:41:59.268Z,1008.41
2023-05-01T09:42:59.235Z,1008.38
2023-05-01T09:43:59.231Z,1008.36
2023-05-01T09:44:59.218Z,1008.42
2023-05-01T09:45:59.264Z,1008.36
2023-05-01T09:46:59.208Z,1008.42
2023-05-01T09:47:59.215Z,1008.40
2023-05-01T09:48:59.231Z,1008.42
2023-05-01T09:49:59.421Z,1008.33
2023-05-01T09:50:59.273Z,1008.33
2023-05-01T09:51:59.142Z,1008.34
2023-05-01T09:52:59.143Z,1008.33
2023-05-01T09:53:59.112Z,1008.34
2023-05-01T09:54:59.104Z,1008.30
2023-05-01T09:55:59.086Z,1008.39
2023-05-01T09:56:59.081Z,1008.30
2023-05-01T09:57:59.096Z,1008.39
2023-05-01T09:58:59.058Z,1008.33
2023-05-01T09:59:59.048Z,1008.31
2023-05-01T10:00:59.075Z,1008.26
2023-05-01T10:01:59.101Z,1008.32
2023-05-01T10:02:59.092Z,1008.30
2023-05-01T10:03:59.129Z,1008.27
2023-05-01T10:04:59.006Z,1008.28
2023-05-01T10:05:58.997Z,1008.30
2023-05-01T10:06:59.100Z,1008.27
2023-05-01T10:07:58.962Z,1008.32
2023-05-01T10:08:58.994Z,1008.30
2023-05-01T10:10:01.466Z,1008.29
2023-05-01T10:10:58.931Z,1008.23
2023-05-01T10:11:58.940Z,1008.24
2023-05-01T10:12:58.906Z,1008.20
2023-05-01T10:13:58.894Z,1008.20
2023-05-01T10:15:00.551Z,1008.21
2023-05-01T10:15:58.890Z,1008.22
2023-05-01T10:16:58.890Z,1008.18
2023-05-01T10:17:58.928Z,1008.22
2023-05-01T10:18:58.884Z,1008.18
2023-05-01T10:19:59.167Z,1008.21
2023-05-01T10:20:58.898Z,1008.19
2023-05-01T10:21:58.829Z,1008.22
2023-05-01T10:22:58.815Z,1008.23
2023-05-01T10:23:58.784Z,1008.19
2023-05-01T10:24:58.777Z,1008.22
2023-05-01T10:25:59.829Z,1008.19
2023-05-01T10:26:58.746Z,1008.24
2023-05-01T10:27:58.745Z,1008.23
2023-05-01T10:28:58.745Z,1008.18
2023-05-01T10:29:59.033Z,1008.18
2023-05-01T10:30:58.765Z,1008.20
2023-05-01T10:31:58.795Z,1008.16
2023-05-01T10:32:58.811Z,1008.16
2023-05-01T10:33:58.683Z,1008.14
2023-05-01T10:34:58.855Z,1008.11
2023-05-01T10:35:58.686Z,1008.11
2023-05-01T10:36:58.647Z,1008.22
2023-05-01T10:37:58.636Z,1008.18
2023-05-01T10:38:58.632Z,1008.11
2023-05-01T10:39:58.623Z,1008.10
2023-05-01T10:40:58.616Z,1008.07
2023-05-01T10:41:58.672Z,1008.04
2023-05-01T10:42:58.566Z,1008.04
2023-05-01T10:43:58.565Z,1008.08
2023-05-01T10:44:58.739Z,1008.13
2023-05-01T10:45:58.610Z,1008.08
2023-05-01T10:46:58.630Z,1008.05
2023-05-01T10:47:58.537Z,1008.03
2023-05-01T10:48:58.507Z,1008.07
2023-05-01T10:49:58.489Z,1007.97
2023-05-01T10:50:58.636Z,1008.07
2023-05-01T10:51:58.510Z,1008.06
2023-05-01T10:52:58.454Z,1008.04
2023-05-01T10:53:58.448Z,1008.00
2023-05-01T10:54:58.684Z,1008.03
2023-05-01T10:55:58.424Z,1007.94
2023-05-01T10:56:58.450Z,1008.00
2023-05-01T10:57:58.401Z,1008.00
2023-05-01T10:58:58.386Z,1007.98
2023-05-01T10:59:58.378Z,1007.98
2023-05-01T11:00:58.366Z,1008.02
2023-05-01T11:01:58.435Z,1007.99
2023-05-01T11:02:58.394Z,1007.95
2023-05-01T11:03:58.339Z,1007.91
2023-05-01T11:04:58.499Z,1007.95
2023-05-01T11:05:58.444Z,1007.95
2023-05-01T11:06:58.329Z,1007.99
2023-05-01T11:07:58.293Z,1007.92
2023-05-01T11:08:58.297Z,1007.88
2023-05-01T11:09:58.277Z,1007.82
2023-05-01T11:10:58.283Z,1007.85
2023-05-01T11:11:58.271Z,1007.90
2023-05-01T11:12:58.252Z,1007.88
2023-05-01T11:13:58.242Z,1007.83
2023-05-01T11:14:58.467Z,1007.88
2023-05-01T11:15:58.249Z,1007.87
2023-05-01T11:16:58.217Z,1007.87
2023-05-01T11:17:58.246Z,1007.82
2023-05-01T11:18:58.167Z,1007.82
2023-05-01T11:19:58.193Z,1007.81
2023-05-01T11:20:58.157Z,1007.83
2023-05-01T11:21:58.139Z,1007.77
2023-05-01T11:22:58.143Z,1007.77
2023-05-01T11:23:58.118Z,1007.77
2023-05-01T11:24:58.451Z,1007.74
2023-05-01T11:25:58.093Z,1007.76
2023-05-01T11:26:58.122Z,1007.77
2023-05-01T11:27:58.074Z,1007.76
2023-05-01T11:28:58.056Z,1007.73
2023-05-01T11:29:58.048Z,1007.65
2023-05-01T11:30:58.045Z,1007.76
2023-05-01T11:31:58.089Z,1007.75
2023-05-01T11:32:58.062Z,1007.74
2023-05-01T11:33:58.005Z,1007.71
2023-05-01T11:34:58.350Z,1007.72
2023-05-01T11:35:57.979Z,1007.69
2023-05-01T11:36:57.994Z,1007.72
2023-05-01T11:37:57.958Z,1007.60
2023-05-01T11:38:57.965Z,1007.63
2023-05-01T11:39:57.953Z,1007.62
2023-05-01T11:40:57.960Z,1007.66
2023-05-01T11:41:57.992Z,1007.70
2023-05-01T11:42:57.961Z,1007.65
2023-05-01T11:43:57.957Z,1007.67
2023-05-01T11:44:58.098Z,1007.63
2023-05-01T11:45:57.945Z,1007.67
2023-05-01T11:46:57.868Z,1007.72
2023-05-01T11:47:57.887Z,1007.63
2023-05-01T11:48:57.834Z,1007.66
2023-05-01T11:49:57.832Z,1007.59
2023-05-01T11:50:57.809Z,1007.65
2023-05-01T11:51:57.827Z,1007.66
2023-05-01T11:52:57.813Z,1007.60
2023-05-01T11:53:57.786Z,1007.65
2023-05-01T11:54:57.772Z,1007.62
2023-05-01T11:55:57.762Z,1007.59
2023-05-01T11:56:57.748Z,1007.58
2023-05-01T11:57:57.749Z,1007.55
2023-05-01T11:58:57.792Z,1007.60
2023-05-01T11:59:57.727Z,1007.56
2023-05-01T12:00:57.702Z,1007.59
2023-05-01T12:01:57.750Z,1007.64
2023-05-01T12:02:57.825Z,1007.63
2023-05-01T12:03:57.832Z,1007.66
2023-05-01T12:04:57.895Z,1007.56